Time;durP1;ratioP1;P1;durP2;ratioP2;P2;SDS_P1;SDS_P2;PMS_P1;PMS_P2;Temp;Humidity;BMP_temperature;BMP_pressure;BME280_temperature;BME280_humidity;BME280_pressure;Samples;Min_cycle;Max_cycle;Signal;HPM_P1;HPM_P2
2022/08/08 00:00:29;;;;;;;11.45;8.85;;;;;;;23.77;58.94;94720.44;4159514;28;20424;-68
2022/08/08 00:03:03;;;;;;;10.40;9.35;;;;;;;23.75;58.90;94725.19;4163278;28;20110;-68
2022/08/08 00:05:41;;;;;;;12.32;8.70;;;;;;;23.69;58.86;94727.78;4161686;28;20073;-69
2022/08/08 00:08:19;;;;;;;9.65;8.65;;;;;;;23.69;59.17;94718.97;4157893;28;20051;-69
2022/08/08 00:10:32;;;;;;;12.55;9.32;;;;;;;23.66;59.21;94730.13;4163884;28;20666;-70
2022/08/08 00:12:44;;;;;;;10.13;9.05;;;;;;;23.62;59.35;94729.00;4160221;28;20570;-68
2022/08/08 00:15:13;;;;;;;11.02;9.32;;;;;;;23.61;58.93;94727.38;4160185;28;20085;-69
2022/08/08 00:17:43;;;;;;;10.90;9.25;;;;;;;23.58;59.62;94735.88;4160841;28;20075;-68
2022/08/08 00:20:06;;;;;;;11.02;9.15;;;;;;;23.62;59.44;94729.81;4177350;28;20067;-68
2022/08/08 00:22:24;;;;;;;9.80;8.80;;;;;;;23.63;58.88;94731.41;4178545;28;20131;-68
2022/08/08 00:24:36;;;;;;;9.73;8.70;;;;;;;23.61;58.83;94732.72;4152210;28;20548;-68
2022/08/08 00:26:42;;;;;;;10.00;9.00;;;;;;;23.63;59.15;94736.78;4159183;28;20084;-69
2022/08/08 00:28:47;;;;;;;13.05;9.57;;;;;;;23.59;59.14;94740.97;4173154;28;20057;-68
2022/08/08 00:30:52;;;;;;;10.55;9.45;;;;;;;23.54;59.71;94745.44;4159115;28;20120;-69
2022/08/08 00:33:20;;;;;;;9.63;8.63;;;;;;;23.47;59.30;94735.69;4159018;28;20080;-69
2022/08/08 00:35:49;;;;;;;9.63;8.63;;;;;;;23.47;59.55;94742.91;4171390;28;20049;-69
2022/08/08 00:37:57;;;;;;;10.10;8.38;;;;;;;23.49;59.31;94735.47;4155976;28;20084;-69
2022/08/08 00:40:46;;;;;;;9.70;8.65;;;;;;;23.48;59.21;94737.28;4155717;28;20507;-70
2022/08/08 00:43:36;;;;;;;11.43;9.07;;;;;;;23.45;59.52;94732.44;4159495;28;20281;-68
2022/08/08 00:45:53;;;;;;;10.07;8.88;;;;;;;23.44;59.53;94730.00;4176652;28;20060;-69
2022/08/08 00:48:29;;;;;;;11.75;8.52;;;;;;;23.41;59.59;94731.28;4158441;28;20049;-69
2022/08/08 00:50:34;;;;;;;10.70;9.45;;;;;;;23.42;59.37;94730.22;4159408;28;20123;-68
2022/08/08 00:53:16;;;;;;;10.23;9.10;;;;;;;23.43;59.57;94731.88;4157834;28;20767;-69
2022/08/08 00:55:33;;;;;;;10.18;9.18;;;;;;;23.44;59.41;94730.81;4146618;28;20336;-69
2022/08/08 00:57:55;;;;;;;10.93;8.98;;;;;;;23.44;59.35;94735.34;4151496;28;20054;-68
2022/08/08 01:00:06;;;;;;;11.00;9.15;;;;;;;23.47;59.10;94734.88;4151409;28;20092;-69
2022/08/08 01:03:04;;;;;;;10.82;9.50;;;;;;;23.47;59.06;94732.22;4156781;28;20433;-69
2022/08/08 01:06:14;;;;;;;9.90;8.77;;;;;;;23.42;58.92;94738.25;4100449;28;20050;-69
2022/08/08 01:08:47;;;;;;;11.52;8.85;;;;;;;23.39;59.26;94735.25;4148798;28;20430;-70
2022/08/08 01:11:17;;;;;;;10.65;8.30;;;;;;;23.37;59.24;94737.34;4151355;28;20041;-69
2022/08/08 01:13:39;;;;;;;9.70;8.50;;;;;;;23.30;59.61;94738.28;4160612;28;20072;-68
2022/08/08 01:16:07;;;;;;;10.88;8.85;;;;;;;23.21;59.83;94739.72;4168102;28;20530;-68
2022/08/08 01:18:45;;;;;;;10.25;9.15;;;;;;;23.09;60.00;94734.41;4149634;28;20068;-68
2022/08/08 01:20:54;;;;;;;10.32;9.18;;;;;;;23.09;60.65;94736.25;4150756;28;20053;-70
2022/08/08 01:23:11;;;;;;;10.57;9.10;;;;;;;23.05;60.81;94738.59;4163390;28;20077;-69
2022/08/08 01:25:50;;;;;;;10.75;9.65;;;;;;;23.07;60.36;94739.16;4153357;28;20547;-68
2022/08/08 01:28:01;;;;;;;13.40;9.18;;;;;;;23.02;60.86;94740.94;4163126;28;20132;-67
2022/08/08 01:30:25;;;;;;;11.80;9.52;;;;;;;22.93;61.12;94744.97;4151713;28;20416;-68
2022/08/08 01:32:56;;;;;;;12.15;8.93;;;;;;;22.90;61.01;94744.38;4162804;28;20065;-69
2022/08/08 01:35:19;;;;;;;11.82;8.95;;;;;;;22.94;61.25;94752.75;4149003;28;20088;-69
2022/08/08 01:37:52;;;;;;;11.75;10.07;;;;;;;22.94;60.95;94754.63;4156585;28;20488;-68
2022/08/08 01:40:22;;;;;;;10.05;9.05;;;;;;;22.87;61.30;94760.09;4159103;28;20088;-70
2022/08/08 01:42:52;;;;;;;11.57;8.98;;;;;;;22.83;61.51;94754.41;4157319;28;20128;-69
2022/08/08 01:45:12;;;;;;;9.73;8.73;;;;;;;22.83;61.41;94754.41;4157962;28;20566;-70
2022/08/08 01:47:57;;;;;;;9.60;8.68;;;;;;;22.86;61.35;94758.44;4147730;28;20065;-68
2022/08/08 01:50:39;;;;;;;11.77;9.55;;;;;;;22.88;61.40;94753.69;4155164;28;20176;-69
2022/08/08 01:53:10;;;;;;;9.52;8.63;;;;;;;22.93;61.49;94759.16;4154734;28;20057;-69
2022/08/08 01:55:45;;;;;;;10.57;8.63;;;;;;;23.02;61.12;94756.97;4146961;28;20496;-68
2022/08/08 01:58:28;;;;;;;9.80;8.80;;;;;;;23.09;60.71;94761.13;4169535;28;20060;-68
2022/08/08 02:00:45;;;;;;;11.23;10.13;;;;;;;23.11;60.95;94758.22;4155586;28;20215;-68
2022/08/08 02:03:16;;;;;;;12.38;10.05;;;;;;;23.09;61.17;94752.31;4154818;28;20052;-68
2022/08/08 02:06:09;;;;;;;11.60;9.68;;;;;;;23.08;61.37;94758.69;4150804;28;20104;-69
2022/08/08 02:08:49;;;;;;;10.82;9.48;;;;;;;23.06;60.85;94763.47;4147687;28;20064;-69
2022/08/08 02:10:59;;;;;;;11.85;10.07;;;;;;;23.05;61.17;94762.63;4153771;28;20042;-69
2022/08/08 02:13:15;;;;;;;14.05;9.88;;;;;;;22.95;61.17;94758.91;4155026;28;20061;-69
2022/08/08 02:15:46;;;;;;;11.65;10.45;;;;;;;22.88;61.15;94754.50;4153732;28;20534;-69
2022/08/08 02:17:53;;;;;;;10.27;9.27;;;;;;;22.93;61.38;94755.66;4154206;28;20057;-69
2022/08/08 02:20:29;;;;;;;10.80;9.73;;;;;;;23.02;60.71;94759.63;4153276;28;20046;-70
2022/08/08 02:23:14;;;;;;;14.88;10.40;;;;;;;23.05;60.85;94756.47;4149914;28;20057;-69
2022/08/08 02:25:30;;;;;;;14.88;10.35;;;;;;;23.06;60.88;94758.94;4153354;28;20073;-69
2022/08/08 02:28:14;;;;;;;11.40;10.23;;;;;;;23.10;60.68;94759.25;4148145;28;20073;-69
2022/08/08 02:30:19;;;;;;;10.23;9.15;;;;;;;23.09;60.35;94758.44;4164371;28;20057;-69
2022/08/08 02:32:43;;;;;;;13.57;10.50;;;;;;;23.08;60.60;94759.50;4157190;28;20056;-68
2022/08/08 02:35:21;;;;;;;15.52;10.60;;;;;;;23.06;60.63;94760.81;4157549;28;20171;-69
2022/08/08 02:37:42;;;;;;;12.35;9.75;;;;;;;22.97;61.29;94765.63;4153801;28;20504;-69
2022/08/08 02:40:18;;;;;;;14.43;10.75;;;;;;;22.69;61.89;94759.19;4155189;28;20057;-70
2022/08/08 02:42:38;;;;;;;;;;;;;;;22.64;62.38;94766.25;4154428;28;20096;-70
2022/08/08 02:45:11;;;;;;;15.45;10.52;;;;;;;22.65;61.86;94762.53;4157973;28;20007;-69
2022/08/08 02:47:43;;;;;;;10.80;9.55;;;;;;;22.68;61.63;94770.09;4153123;28;20516;-69
2022/08/08 02:50:20;;;;;;;11.30;9.45;;;;;;;22.72;61.09;94779.25;4155198;28;20433;-69
2022/08/08 02:52:38;;;;;;;9.80;8.20;;;;;;;22.67;60.32;94777.28;4146006;28;20070;-68
2022/08/08 02:55:04;;;;;;;9.70;8.70;;;;;;;22.64;60.81;94775.06;4155240;28;20508;-69
2022/08/08 02:57:38;;;;;;;12.57;8.30;;;;;;;22.61;60.07;94766.72;4154518;28;20160;-70
2022/08/08 02:59:58;;;;;;;10.32;8.23;;;;;;;22.64;60.33;94777.72;4155310;28;20084;-69
2022/08/08 03:02:47;;;;;;;8.95;8.05;;;;;;;22.64;59.94;94772.41;4149527;28;20049;-68
2022/08/08 03:04:58;;;;;;;13.57;8.45;;;;;;;22.67;59.83;94774.63;4157130;28;20583;-68
2022/08/08 03:07:33;;;;;;;8.93;7.65;;;;;;;22.63;59.96;94778.00;4155787;28;20513;-68
2022/08/08 03:10:23;;;;;;;11.57;8.82;;;;;;;22.60;60.00;94773.91;4152006;28;20073;-69
2022/08/08 03:12:41;;;;;;;11.85;9.30;;;;;;;22.40;60.76;94776.91;4158676;28;20042;-68
2022/08/08 03:15:25;;;;;;;12.05;8.90;;;;;;;22.35;60.75;94779.47;4158289;28;20437;-70
2022/08/08 03:18:06;;;;;;;12.15;9.02;;;;;;;22.27;61.04;94777.13;4156748;28;20049;-68
2022/08/08 03:20:10;;;;;;;8.75;7.85;;;;;;;22.22;60.87;94784.97;4145983;28;20116;-67
2022/08/08 03:22:12;;;;;;;9.85;7.90;;;;;;;22.19;60.86;94785.44;4154211;28;20069;-68
2022/08/08 03:24:33;;;;;;;14.18;8.00;;;;;;;22.15;60.76;94782.41;4143786;28;20042;-69
2022/08/08 03:26:39;;;;;;;8.50;7.70;;;;;;;22.13;60.71;94778.34;4144055;28;20544;-68
2022/08/08 03:28:46;;;;;;;7.97;7.20;;;;;;;22.07;60.73;94786.25;4138626;28;20083;-69
2022/08/08 03:30:52;;;;;;;7.88;7.18;;;;;;;22.11;60.63;94788.44;4154682;28;20614;-70
2022/08/08 03:33:17;;;;;;;8.68;7.78;;;;;;;22.11;60.72;94785.75;4143233;28;20127;-68
2022/08/08 03:35:40;;;;;;;9.27;7.28;;;;;;;22.04;60.81;94786.69;4142997;28;20046;-68
2022/08/08 03:37:44;;;;;;;10.30;8.13;;;;;;;22.08;61.16;94784.38;4146336;28;20099;-68
2022/08/08 03:40:07;;;;;;;12.18;8.38;;;;;;;22.12;60.79;94792.75;4171855;28;20053;-68
2022/08/08 03:42:28;;;;;;;9.10;8.20;;;;;;;22.18;60.67;94789.16;4150955;28;20512;-69
2022/08/08 03:44:33;;;;;;;9.38;7.63;;;;;;;22.28;60.52;94792.09;4167428;28;20057;-71
2022/08/08 03:46:48;;;;;;;10.07;7.30;;;;;;;22.32;59.95;94795.13;4173068;28;20392;-68
2022/08/08 03:48:58;;;;;;;10.40;7.75;;;;;;;22.29;60.41;94796.41;4162799;28;20067;-69
2022/08/08 03:51:20;;;;;;;11.07;7.97;;;;;;;22.27;60.38;94798.50;4159295;28;20589;-69
2022/08/08 03:53:41;;;;;;;8.38;6.57;;;;;;;22.37;60.11;94801.41;4160661;28;20046;-70
2022/08/08 03:55:49;;;;;;;10.85;7.30;;;;;;;22.45;59.89;94801.06;4152184;28;20041;-69
2022/08/08 03:57:58;;;;;;;12.57;8.45;;;;;;;22.48;59.98;94800.59;4167187;28;20148;-68
2022/08/08 04:00:24;;;;;;;11.50;8.63;;;;;;;22.40;60.10;94808.94;4162792;28;20049;-69
2022/08/08 04:02:26;;;;;;;9.40;8.07;;;;;;;22.14;60.63;94804.00;4153899;28;20057;-68
2022/08/08 04:04:48;;;;;;;10.35;8.60;;;;;;;21.83;62.12;94806.69;4163627;28;20076;-68
2022/08/08 04:06:57;;;;;;;12.32;8.68;;;;;;;21.74;62.44;94810.69;4149362;28;20049;-69
2022/08/08 04:09:06;;;;;;;14.07;8.25;;;;;;;21.87;61.96;94809.69;4168563;28;20049;-69
2022/08/08 04:11:12;;;;;;;9.55;8.35;;;;;;;21.96;61.83;94807.53;4162623;28;20451;-68
2022/08/08 04:13:23;;;;;;;9.35;8.43;;;;;;;22.11;61.48;94810.59;4152768;28;20495;-70
2022/08/08 04:15:27;;;;;;;12.05;8.27;;;;;;;22.24;61.20;94818.44;4178066;28;20143;-68
2022/08/08 04:17:38;;;;;;;10.73;9.35;;;;;;;22.38;61.02;94816.38;4165475;28;20088;-69
2022/08/08 04:19:59;;;;;;;12.40;9.45;;;;;;;22.48;60.94;94811.28;4171800;28;20045;-68
2022/08/08 04:22:05;;;;;;;9.70;8.70;;;;;;;22.56;60.53;94806.63;4172733;28;20377;-69
2022/08/08 04:24:07;;;;;;;11.55;9.00;;;;;;;22.62;60.54;94811.06;4182180;28;20107;-67
2022/08/08 04:26:20;;;;;;;15.57;9.32;;;;;;;22.56;60.64;94818.13;4160843;28;20239;-68
2022/08/08 04:28:26;;;;;;;11.27;10.18;;;;;;;22.58;60.76;94815.22;4177931;28;20053;-68
2022/08/08 04:30:54;;;;;;;13.43;10.05;;;;;;;22.69;60.17;94822.44;4181689;28;20133;-68
2022/08/08 04:33:00;;;;;;;12.05;9.93;;;;;;;22.80;60.04;94818.97;4159814;28;20053;-66
2022/08/08 04:35:03;;;;;;;10.80;9.73;;;;;;;22.87;59.75;94818.84;4177117;28;20518;-68
2022/08/08 04:37:05;;;;;;;12.98;9.88;;;;;;;22.88;59.38;94820.47;4176628;28;20432;-68
2022/08/08 04:39:07;;;;;;;17.42;10.07;;;;;;;22.87;59.61;94813.50;4166891;28;20329;-69
2022/08/08 04:41:29;;;;;;;13.30;11.20;;;;;;;22.73;60.23;94826.25;4167353;28;20053;-71
2022/08/08 04:43:37;;;;;;;13.70;11.68;;;;;;;22.75;60.23;94831.38;4157403;28;20156;-68
2022/08/08 04:45:50;;;;;;;15.90;14.07;;;;;;;22.82;59.80;94826.72;4163607;28;21050;-69
2022/08/08 04:47:53;;;;;;;18.38;13.45;;;;;;;22.78;60.06;94836.25;4154107;28;20046;-70
2022/08/08 04:49:55;;;;;;;17.67;12.25;;;;;;;22.73;60.46;94831.59;4172963;28;20059;-68
2022/08/08 04:52:05;;;;;;;13.32;11.68;;;;;;;22.69;60.53;94831.28;4167937;28;20080;-69
2022/08/08 04:54:08;;;;;;;17.00;11.38;;;;;;;22.55;61.00;94832.53;4165101;28;20103;-70
2022/08/08 04:56:30;;;;;;;14.30;11.23;;;;;;;22.45;61.42;94835.75;4175880;28;20049;-69
2022/08/08 04:58:32;;;;;;;14.57;10.70;;;;;;;22.44;61.12;94831.47;4173838;28;20053;-68
2022/08/08 05:00:34;;;;;;;11.77;9.57;;;;;;;22.27;61.32;94833.19;4162897;28;20111;-69
2022/08/08 05:02:37;;;;;;;11.90;10.60;;;;;;;22.35;61.28;94837.34;4162622;28;20455;-70
2022/08/08 05:04:43;;;;;;;12.18;10.60;;;;;;;22.44;61.09;94844.81;4174478;28;20417;-69
2022/08/08 05:06:47;;;;;;;16.48;10.68;;;;;;;22.57;61.01;94840.31;4162056;28;20053;-67
2022/08/08 05:08:53;;;;;;;13.73;10.85;;;;;;;22.52;60.92;94841.00;4163080;28;20401;-68
2022/08/08 05:10:56;;;;;;;22.63;11.32;;;;;;;22.35;61.04;94845.38;4163354;28;20092;-68
2022/08/08 05:12:58;;;;;;;19.98;10.55;;;;;;;22.29;60.90;94831.09;4164044;28;20045;-67
2022/08/08 05:15:03;;;;;;;12.50;10.07;;;;;;;22.17;61.28;94841.69;4162789;28;20053;-70
2022/08/08 05:17:06;;;;;;;10.88;9.20;;;;;;;22.02;61.20;94838.63;4162826;28;20053;-67
2022/08/08 05:19:11;;;;;;;11.82;9.90;;;;;;;21.99;61.67;94844.44;4165694;28;20056;-67
2022/08/08 05:21:33;;;;;;;11.63;9.82;;;;;;;22.21;61.08;94842.88;4162974;28;20175;-69
2022/08/08 05:23:44;;;;;;;12.02;10.35;;;;;;;22.51;60.27;94849.25;4179475;28;20055;-68
2022/08/08 05:25:48;;;;;;;14.07;9.90;;;;;;;22.61;60.57;94846.81;4175142;28;20112;-70
2022/08/08 05:27:50;;;;;;;;;;;;;;;22.73;59.90;94847.63;4160148;28;20052;-68
2022/08/08 05:29:55;;;;;;;14.95;10.98;;;;;;;22.84;59.95;94849.53;4178013;28;19948;-68
2022/08/08 05:31:57;;;;;;;18.65;10.38;;;;;;;22.75;59.77;94848.22;4179088;28;20492;-68
2022/08/08 05:34:15;;;;;;;12.07;10.40;;;;;;;22.89;59.63;94851.50;4176010;28;20091;-67
2022/08/08 05:36:24;;;;;;;13.15;10.68;;;;;;;23.09;58.61;94848.50;4151712;28;20595;-68
2022/08/08 05:38:30;;;;;;;12.13;9.48;;;;;;;23.20;58.25;94849.53;4155245;28;20140;-70
2022/08/08 05:40:33;;;;;;;10.80;8.85;;;;;;;23.38;57.53;94849.41;4144843;28;20485;-68
2022/08/08 05:42:41;;;;;;;9.93;8.82;;;;;;;23.54;57.26;94844.38;4167584;28;20045;-67
2022/08/08 05:44:45;;;;;;;14.25;10.15;;;;;;;23.58;56.88;94853.53;4176338;28;20048;-69
2022/08/08 05:46:52;;;;;;;11.93;9.73;;;;;;;23.66;56.59;94848.63;4175936;28;20510;-68
2022/08/08 05:48:54;;;;;;;11.68;9.50;;;;;;;23.77;56.24;94848.84;4163206;28;20052;-70
2022/08/08 05:50:56;;;;;;;13.80;9.25;;;;;;;23.86;55.75;94853.59;4170311;28;20134;-69
2022/08/08 05:53:14;;;;;;;12.65;10.02;;;;;;;23.80;56.26;94853.72;4170622;28;20044;-69
2022/08/08 05:55:40;;;;;;;16.15;11.02;;;;;;;23.73;56.53;94856.53;4168756;28;20102;-69
2022/08/08 05:58:02;;;;;;;14.43;10.52;;;;;;;23.75;56.67;94856.25;4161749;28;20049;-69
2022/08/08 06:00:20;;;;;;;15.60;9.95;;;;;;;23.51;57.38;94851.81;4176403;28;20481;-69
2022/08/08 06:04:49;;;;;;;11.77;9.80;;;;;;;23.55;57.21;94862.81;4162162;28;20060;-71
2022/08/08 06:06:57;;;;;;;13.95;9.93;;;;;;;23.55;57.83;94857.47;4148340;28;20100;-70
2022/08/08 06:09:03;;;;;;;17.38;10.35;;;;;;;23.67;57.51;94860.94;4167087;28;20072;-69
2022/08/08 06:11:27;;;;;;;13.32;8.98;;;;;;;23.86;56.18;94855.47;4161581;28;20106;-69
2022/08/08 06:13:30;;;;;;;9.98;7.80;;;;;;;24.08;55.21;94860.94;4158708;28;20045;-68
2022/08/08 06:15:49;;;;;;;12.80;8.32;;;;;;;24.32;54.64;94862.44;4164998;28;20053;-67
2022/08/08 06:17:55;;;;;;;14.48;9.05;;;;;;;24.51;54.53;94868.44;4160923;28;20361;-67
2022/08/08 06:20:17;;;;;;;12.15;9.38;;;;;;;24.68;54.24;94862.28;4154692;28;20178;-70
2022/08/08 06:22:21;;;;;;;11.18;9.00;;;;;;;24.61;54.33;94862.47;4164070;28;20052;-70
2022/08/08 06:24:42;;;;;;;11.63;9.13;;;;;;;24.73;54.27;94863.16;4159029;28;20366;-68
2022/08/08 06:26:59;;;;;;;11.93;8.60;;;;;;;24.86;53.85;94862.03;4168837;28;20444;-70
2022/08/08 06:29:05;;;;;;;10.02;8.23;;;;;;;24.89;53.75;94866.13;4163168;28;20465;-69
2022/08/08 06:31:29;;;;;;;10.93;8.57;;;;;;;24.91;53.76;94864.00;4176751;28;20060;-69
2022/08/08 06:34:01;;;;;;;10.23;8.77;;;;;;;24.95;53.57;94870.47;4161092;28;20148;-69
2022/08/08 06:36:34;;;;;;;11.43;8.60;;;;;;;25.15;53.12;94872.66;4150019;28;20057;-71
2022/08/08 06:38:54;;;;;;;8.60;7.70;;;;;;;25.37;52.81;94871.94;4173173;28;20067;-68
2022/08/08 06:41:06;;;;;;;9.43;8.52;;;;;;;25.56;52.49;94869.78;4174740;28;20045;-68
2022/08/08 06:43:13;;;;;;;12.88;8.45;;;;;;;25.71;51.79;94868.06;4174635;28;20049;-68
2022/08/08 06:45:15;;;;;;;9.90;7.57;;;;;;;25.65;51.40;94871.75;4145020;28;20053;-67
2022/08/08 06:47:17;;;;;;;10.38;7.78;;;;;;;25.54;51.54;94870.00;4163656;28;20122;-69
2022/08/08 06:49:35;;;;;;;10.75;7.82;;;;;;;25.09;53.14;94879.81;4175715;28;20045;-68
2022/08/08 06:51:58;;;;;;;10.18;7.95;;;;;;;25.11;52.57;94876.88;4158766;28;20068;-69
2022/08/08 06:54:03;;;;;;;14.35;8.00;;;;;;;25.27;52.71;94876.06;4171860;28;20053;-69
2022/08/08 06:56:23;;;;;;;9.63;8.35;;;;;;;25.59;51.72;94874.63;4172335;28;20044;-69
2022/08/08 06:58:26;;;;;;;11.52;9.07;;;;;;;25.80;51.05;94881.88;4173849;28;20068;-69
2022/08/08 07:00:35;;;;;;;10.63;8.23;;;;;;;26.04;50.89;94874.38;4174945;28;20130;-69
2022/08/08 07:02:52;;;;;;;12.68;8.25;;;;;;;26.21;50.25;94876.19;4153098;28;20686;-68
2022/08/08 07:04:56;;;;;;;11.48;7.95;;;;;;;26.30;50.12;94872.78;4173369;28;20049;-69
2022/08/08 07:07:02;;;;;;;9.02;7.70;;;;;;;26.14;50.39;94882.56;4169896;28;20140;-71
2022/08/08 07:09:34;;;;;;;12.10;7.93;;;;;;;26.01;50.39;94877.59;4170352;28;20472;-71
2022/08/08 07:11:58;;;;;;;10.38;7.63;;;;;;;25.97;49.21;94873.78;4175664;28;20052;-70
2022/08/08 07:14:03;;;;;;;7.53;6.47;;;;;;;25.93;49.01;94876.16;4157911;28;20049;-69
2022/08/08 07:16:15;;;;;;;8.63;6.70;;;;;;;25.77;48.82;94873.50;4149944;28;20056;-70
2022/08/08 07:18:41;;;;;;;8.38;7.28;;;;;;;25.53;49.63;94877.25;4157831;28;20057;-69
2022/08/08 07:20:48;;;;;;;9.60;7.20;;;;;;;25.49;49.59;94876.13;4157059;28;20056;-69
2022/08/08 07:23:15;;;;;;;7.72;6.15;;;;;;;25.76;48.88;94875.38;4160908;28;20048;-68
2022/08/08 07:25:25;;;;;;;9.05;6.82;;;;;;;26.12;48.38;94879.31;4161972;28;20060;-69
2022/08/08 07:27:56;;;;;;;8.50;6.80;;;;;;;26.41;47.74;94873.69;4178471;28;20139;-71
2022/08/08 07:30:08;;;;;;;10.45;6.90;;;;;;;26.68;47.49;94880.97;4162258;28;20045;-72
2022/08/08 07:32:19;;;;;;;10.48;6.53;;;;;;;26.84;45.40;94885.38;4177851;28;20092;-69
2022/08/08 07:34:23;;;;;;;7.75;5.85;;;;;;;26.77;45.41;94884.78;4161267;28;20053;-69
2022/08/08 07:36:33;;;;;;;11.00;6.38;;;;;;;26.87;45.85;94882.19;4161743;28;20717;-69
2022/08/08 07:38:36;;;;;;;8.97;6.47;;;;;;;26.98;45.34;94880.41;4176432;28;20056;-69
2022/08/08 07:40:38;;;;;;;9.15;6.70;;;;;;;27.04;45.19;94867.78;4170174;28;20059;-69
2022/08/08 07:42:41;;;;;;;8.57;6.82;;;;;;;26.71;45.27;94878.56;4176347;28;20045;-68
2022/08/08 07:44:45;;;;;;;7.78;6.10;;;;;;;26.55;45.58;94876.78;4161125;28;20092;-68
2022/08/08 07:46:47;;;;;;;11.03;6.50;;;;;;;26.53;45.25;94871.66;4165202;28;20315;-68
2022/08/08 07:48:49;;;;;;;8.88;6.18;;;;;;;26.54;45.52;94870.63;4164467;28;20308;-69
2022/08/08 07:50:57;;;;;;;7.70;5.40;;;;;;;26.57;44.89;94863.94;4170561;28;20446;-66
2022/08/08 07:53:10;;;;;;;9.85;5.72;;;;;;;26.57;44.82;94868.50;4174212;28;20099;-68
2022/08/08 07:55:31;;;;;;;6.90;5.93;;;;;;;26.44;44.83;94869.72;4170138;28;20518;-70
2022/08/08 07:57:48;;;;;;;6.40;5.30;;;;;;;26.54;44.86;94867.94;4169803;28;20053;-68
2022/08/08 08:00:12;;;;;;;7.32;5.50;;;;;;;26.84;44.55;94865.78;4149141;28;20065;-68
2022/08/08 08:02:22;;;;;;;6.35;5.35;;;;;;;27.12;43.99;94860.03;4164630;28;20156;-70
2022/08/08 08:04:43;;;;;;;8.85;5.78;;;;;;;27.35;43.71;94852.69;4165863;28;20053;-70
2022/08/08 08:06:47;;;;;;;9.02;6.00;;;;;;;27.61;43.19;94856.31;4163751;28;20057;-68
2022/08/08 08:09:11;;;;;;;9.32;5.68;;;;;;;27.81;43.09;94860.97;4146468;28;20062;-68
2022/08/08 08:11:18;;;;;;;6.88;5.35;;;;;;;27.57;42.89;94856.03;4165849;28;20045;-69
2022/08/08 08:13:31;;;;;;;7.40;4.88;;;;;;;27.77;42.55;94849.94;4166390;28;20064;-71
2022/08/08 08:16:07;;;;;;;8.93;5.07;;;;;;;27.54;41.38;94847.69;4164911;28;20116;-68
2022/08/08 08:18:09;;;;;;;7.65;4.93;;;;;;;27.53;41.63;94859.50;4177850;28;20057;-69
2022/08/08 08:20:16;;;;;;;6.57;4.22;;;;;;;27.62;40.97;94849.88;4169628;28;20060;-71
2022/08/08 08:22:22;;;;;;;10.05;4.50;;;;;;;27.65;41.46;94846.66;4162110;28;20053;-69
2022/08/08 08:24:32;;;;;;;5.25;4.38;;;;;;;27.62;40.15;94846.38;4162170;28;20045;-70
2022/08/08 08:26:35;;;;;;;8.32;4.63;;;;;;;27.75;39.78;94846.72;4162439;28;20068;-68
2022/08/08 08:28:39;;;;;;;5.32;3.80;;;;;;;27.83;39.46;94842.69;4173723;28;20144;-69
2022/08/08 08:30:41;;;;;;;8.02;4.50;;;;;;;27.50;39.79;94846.59;4164379;28;20057;-68
2022/08/08 08:32:46;;;;;;;6.38;3.72;;;;;;;27.50;39.96;94844.72;4163064;28;20434;-67
2022/08/08 08:34:52;;;;;;;10.05;4.43;;;;;;;27.33;39.84;94833.31;4162512;28;20092;-70
2022/08/08 08:36:54;;;;;;;5.88;4.53;;;;;;;27.47;39.85;94841.72;4172655;28;20053;-69
2022/08/08 08:38:56;;;;;;;7.40;3.67;;;;;;;27.66;38.10;94842.91;4176758;28;20053;-69
2022/08/08 08:40:58;;;;;;;6.43;3.47;;;;;;;27.89;37.70;94841.66;4157940;28;20369;-68
2022/08/08 08:43:01;;;;;;;9.23;3.40;;;;;;;28.17;37.42;94836.91;4177463;28;20198;-68
2022/08/08 08:45:05;;;;;;;;;;;;;;;28.36;36.94;94839.91;4166033;28;20381;-69
2022/08/08 08:47:24;;;;;;;5.45;4.55;;;;;;;28.64;37.14;94840.50;4157956;28;19991;-68
2022/08/08 08:49:29;;;;;;;8.73;3.60;;;;;;;28.82;36.44;94841.84;4151945;28;20069;-69
2022/08/08 08:51:37;;;;;;;4.85;3.50;;;;;;;28.98;36.06;94833.47;4177330;28;20431;-69
2022/08/08 08:53:53;;;;;;;5.85;3.72;;;;;;;29.09;36.21;94838.84;4150247;28;20044;-68
2022/08/08 08:56:01;;;;;;;6.85;3.55;;;;;;;29.08;35.41;94824.56;4173709;28;20044;-70
2022/08/08 08:58:05;;;;;;;3.42;3.00;;;;;;;28.54;34.13;94835.91;4172802;28;20057;-68
2022/08/08 09:00:09;;;;;;;7.70;3.65;;;;;;;28.72;34.98;94837.28;4175835;28;20052;-68
2022/08/08 09:02:20;;;;;;;5.43;2.95;;;;;;;28.93;34.00;94828.09;4157293;28;20053;-70
2022/08/08 09:04:24;;;;;;;5.70;3.33;;;;;;;29.18;33.84;94821.84;4177896;28;20059;-72
2022/08/08 09:06:40;;;;;;;8.60;3.45;;;;;;;29.43;34.08;94817.50;4159419;28;20562;-68
2022/08/08 09:09:04;;;;;;;5.15;4.35;;;;;;;29.67;34.56;94817.66;4159936;28;20119;-67
2022/08/08 09:11:08;;;;;;;5.40;3.42;;;;;;;29.80;33.90;94809.00;4174755;28;20362;-70
2022/08/08 09:13:11;;;;;;;5.53;3.25;;;;;;;29.83;34.03;94812.22;4158160;28;20076;-70
2022/08/08 09:15:17;;;;;;;6.57;3.10;;;;;;;30.03;33.63;94806.72;4142966;28;20050;-66
2022/08/08 09:17:40;;;;;;;5.32;3.45;;;;;;;30.19;33.67;94804.75;4174954;28;20049;-67
2022/08/08 09:19:58;;;;;;;4.07;3.60;;;;;;;30.08;33.79;94795.09;4176231;28;20045;-67
2022/08/08 09:22:21;;;;;;;6.88;3.90;;;;;;;29.88;33.91;94809.50;4165497;28;20495;-69
2022/08/08 09:24:28;;;;;;;8.43;4.05;;;;;;;29.68;34.29;94808.47;4166810;28;20180;-68
2022/08/08 09:26:55;;;;;;;4.88;2.85;;;;;;;29.30;33.74;94802.69;4168002;28;20128;-69
2022/08/08 09:29:00;;;;;;;7.13;3.20;;;;;;;29.05;33.43;94806.22;4160854;28;20056;-69
2022/08/08 09:31:19;;;;;;;6.38;2.88;;;;;;;29.05;34.00;94803.53;4160690;28;20049;-68
2022/08/08 09:33:25;;;;;;;6.43;3.42;;;;;;;29.18;33.65;94796.78;4154702;28;20140;-67
2022/08/08 09:35:47;;;;;;;6.97;3.22;;;;;;;29.38;33.67;94799.44;4146696;28;20437;-69
2022/08/08 09:37:54;;;;;;;4.95;3.15;;;;;;;29.62;33.55;94790.72;4143447;28;20437;-69
2022/08/08 09:40:07;;;;;;;6.72;3.60;;;;;;;29.85;34.02;94786.56;4144639;28;20054;-68
2022/08/08 09:42:15;;;;;;;6.45;3.10;;;;;;;30.13;32.85;94776.13;4163210;28;20476;-68
2022/08/08 09:44:41;;;;;;;5.25;2.90;;;;;;;30.33;31.96;94776.03;4176838;28;20048;-69
2022/08/08 09:46:47;;;;;;;4.30;2.90;;;;;;;30.48;31.87;94777.81;4161340;28;20469;-69
2022/08/08 09:49:06;;;;;;;6.57;3.20;;;;;;;30.54;31.44;94776.66;4161065;28;20045;-68
2022/08/08 09:51:30;;;;;;;10.93;3.28;;;;;;;30.51;31.45;94773.75;4160565;28;20057;-68
2022/08/08 09:53:53;;;;;;;;;;;;;;;30.55;31.28;94763.97;4151630;28;20542;-72
2022/08/08 09:56:10;;;;;;;5.50;3.10;;;;;;;30.55;31.22;94755.88;4164868;28;19978;-68
2022/08/08 09:58:25;;;;;;;3.25;2.78;;;;;;;30.42;31.68;94773.53;4155104;28;20132;-68
2022/08/08 10:00:45;;;;;;;4.97;2.70;;;;;;;30.27;31.48;94762.81;4145930;28;20504;-69
2022/08/08 10:03:02;;;;;;;6.35;3.30;;;;;;;30.23;31.66;94772.56;4161257;28;20120;-69
2022/08/08 10:05:08;;;;;;;5.00;2.85;;;;;;;30.46;31.56;94766.47;4160632;28;20052;-70
2022/08/08 10:07:16;;;;;;;3.97;2.90;;;;;;;30.59;31.28;94762.31;4160173;28;20500;-68
2022/08/08 10:09:32;;;;;;;7.60;3.00;;;;;;;30.75;31.73;94760.28;4160763;28;20057;-69
2022/08/08 10:11:55;;;;;;;5.32;2.60;;;;;;;30.86;31.20;94751.00;4160796;28;20049;-69
2022/08/08 10:14:16;;;;;;;5.57;3.20;;;;;;;30.34;31.28;94757.91;4173654;28;20132;-69
2022/08/08 10:16:37;;;;;;;4.25;2.42;;;;;;;30.34;31.21;94749.81;4180052;28;20441;-70
2022/08/08 10:18:40;;;;;;;7.03;3.30;;;;;;;30.47;31.15;94745.66;4149299;28;20119;-67
2022/08/08 10:20:45;;;;;;;5.72;2.85;;;;;;;30.37;30.15;94752.78;4172340;28;20425;-69
2022/08/08 10:23:03;;;;;;;4.97;2.55;;;;;;;30.47;30.28;94738.34;4150372;28;20136;-68
2022/08/08 10:25:06;;;;;;;4.25;2.72;;;;;;;30.34;30.50;94736.31;4169450;28;20067;-69
2022/08/08 10:27:18;;;;;;;6.32;2.78;;;;;;;30.68;30.31;94735.47;4156055;28;20053;-70
2022/08/08 10:29:30;;;;;;;7.10;2.58;;;;;;;30.67;29.45;94733.84;4147350;28;20076;-68
2022/08/08 10:34:18;;;;;;;4.45;2.65;;;;;;;30.34;29.85;94729.00;4164900;28;20045;-68
2022/08/08 10:36:23;;;;;;;4.80;2.60;;;;;;;30.09;29.75;94724.56;4173758;28;20088;-69
2022/08/08 10:38:33;;;;;;;5.28;2.33;;;;;;;29.99;29.98;94727.34;4156849;28;20682;-66
2022/08/08 10:40:37;;;;;;;7.00;2.70;;;;;;;29.78;30.41;94730.16;4156097;28;20046;-69